createdAt,value
2022-08-01T22:03:41.552Z,19.00
2022-08-01T22:17:04.027Z,14.89
2022-08-01T22:17:14.514Z,14.89
2022-08-01T22:17:26.185Z,14.89
2022-08-01T22:18:26.657Z,14.84
2022-08-01T22:19:32.501Z,14.84
2022-08-01T22:20:25.331Z,14.79
2022-08-01T22:21:25.864Z,14.79
2022-08-01T22:22:44.823Z,14.79
2022-08-01T22:23:53.268Z,14.79
2022-08-01T22:24:53.747Z,14.74
2022-08-01T22:25:54.231Z,14.79
2022-08-01T22:26:54.789Z,14.74
2022-08-01T22:28:02.768Z,14.69
2022-08-01T22:29:10.648Z,14.64
2022-08-01T22:30:11.136Z,14.69
2022-08-01T22:31:11.598Z,14.64
2022-08-01T22:32:12.269Z,14.59
2022-08-01T22:33:15.966Z,14.55
2022-08-01T22:33:23.102Z,14.55
2022-08-01T22:34:23.578Z,14.59
2022-08-01T22:35:29.014Z,14.59
2022-08-01T22:36:29.485Z,14.55
2022-08-01T22:37:55.999Z,14.55
2022-08-01T22:38:58.067Z,14.55
2022-08-01T22:39:58.560Z,14.59
2022-08-01T22:40:59.072Z,14.59
2022-08-01T22:42:01.215Z,14.55
2022-08-01T22:42:28.297Z,14.55
2022-08-01T22:43:28.788Z,14.55
2022-08-01T22:44:29.373Z,14.55
2022-08-01T22:45:30.631Z,14.5
2022-08-01T22:46:31.263Z,14.5
2022-08-01T22:47:31.827Z,14.5
2022-08-01T22:48:34.653Z,14.5
2022-08-01T22:49:35.477Z,14.45
2022-08-01T22:50:36.855Z,14.45
2022-08-01T22:51:37.389Z,14.45
2022-08-01T22:52:37.906Z,14.45
2022-08-01T22:53:38.394Z,14.4
2022-08-01T22:54:38.894Z,14.35
2022-08-01T22:55:58.866Z,14.35
2022-08-01T22:57:00.081Z,14.3
2022-08-01T22:58:07.492Z,14.3
2022-08-01T22:59:07.965Z,14.3
2022-08-01T23:00:08.441Z,14.45
2022-08-01T23:01:08.987Z,14.5
2022-08-01T23:02:09.869Z,14.55
2022-08-01T23:03:11.603Z,14.55
2022-08-01T23:04:12.079Z,14.59
2022-08-01T23:05:12.558Z,14.55
2022-08-01T23:06:13.086Z,14.5
2022-08-01T23:07:13.577Z,14.5
2022-08-01T23:08:14.762Z,14.5
2022-08-01T23:09:15.446Z,14.45
2022-08-01T23:10:15.909Z,14.4
2022-08-01T23:11:16.415Z,14.4
2022-08-01T23:12:16.927Z,14.35
2022-08-01T23:13:17.440Z,14.35
2022-08-01T23:14:17.958Z,14.3
2022-08-01T23:15:18.440Z,14.25
2022-08-01T23:16:18.956Z,14.25
2022-08-01T23:17:26.278Z,14.25
2022-08-01T23:18:30.047Z,14.2
2022-08-01T23:19:30.535Z,14.2
2022-08-01T23:20:31.018Z,14.2
2022-08-01T23:21:31.514Z,14.25
2022-08-01T23:22:32.141Z,14.25
2022-08-01T23:23:33.030Z,14.25
2022-08-01T23:24:33.522Z,14.2
2022-08-01T23:25:34.021Z,14.16
2022-08-01T23:26:34.510Z,14.16
2022-08-01T23:27:51.099Z,14.16
2022-08-01T23:29:06.832Z,14.11
2022-08-01T23:30:07.313Z,14.11
2022-08-01T23:31:07.811Z,14.06
2022-08-01T23:32:08.281Z,14.06
2022-08-01T23:33:08.766Z,14.06
2022-08-01T23:34:09.248Z,14.06
2022-08-01T23:35:09.729Z,14.01
2022-08-01T23:36:10.242Z,14.01
2022-08-01T23:37:10.738Z,14.01
2022-08-01T23:38:11.236Z,14.01
2022-08-01T23:39:11.719Z,13.96
2022-08-01T23:40:13.930Z,13.96
2022-08-01T23:41:14.446Z,13.96
2022-08-01T23:42:15.031Z,13.96
2022-08-01T23:43:17.260Z,13.96
2022-08-01T23:44:18.506Z,13.96
2022-08-01T23:45:18.989Z,13.96
2022-08-01T23:46:19.507Z,13.96
2022-08-01T23:47:19.981Z,13.96
2022-08-01T23:48:20.477Z,13.91
2022-08-01T23:49:21.082Z,13.96
2022-08-01T23:50:22.321Z,13.96
2022-08-01T23:51:24.796Z,13.96
2022-08-01T23:52:28.023Z,13.91
2022-08-01T23:53:38.434Z,13.91
2022-08-01T23:54:39.285Z,13.91
2022-08-01T23:55:41.841Z,13.91
2022-08-01T23:56:44.980Z,13.91
2022-08-01T23:57:47.872Z,13.86
2022-08-01T23:58:48.381Z,13.91
2022-08-01T23:59:52.603Z,13.86
